sensor_id;sensor_type;location;lat;lon;timestamp;temperature;humidity
26063;DHT22;13837;48.562;12.108;2022-11-06T00:00:11;4.10;99.90
26063;DHT22;13837;48.562;12.108;2022-11-06T00:02:38;4.10;99.90
26063;DHT22;13837;48.562;12.108;2022-11-06T00:05:04;4.00;99.90
26063;DHT22;13837;48.562;12.108;2022-11-06T00:07:49;3.90;99.90
26063;DHT22;13837;48.562;12.108;2022-11-06T00:10:16;3.80;99.90
26063;DHT22;13837;48.562;12.108;2022-11-06T00:12:42;3.70;99.90
26063;DHT22;13837;48.562;12.108;2022-11-06T00:15:08;3.70;99.90
26063;DHT22;13837;48.562;12.108;2022-11-06T00:17:34;3.60;99.90
26063;DHT22;13837;48.562;12.108;2022-11-06T00:19:59;3.60;99.90
26063;DHT22;13837;48.562;12.108;2022-11-06T00:22:25;3.50;99.90
26063;DHT22;13837;48.562;12.108;2022-11-06T00:24:52;3.60;99.90
26063;DHT22;13837;48.562;12.108;2022-11-06T00:27:17;3.60;99.90
26063;DHT22;13837;48.562;12.108;2022-11-06T00:29:43;3.60;99.90
26063;DHT22;13837;48.562;12.108;2022-11-06T00:32:09;3.70;99.90
26063;DHT22;13837;48.562;12.108;2022-11-06T00:34:35;3.70;99.90
26063;DHT22;13837;48.562;12.108;2022-11-06T00:37:00;3.70;99.90
26063;DHT22;13837;48.562;12.108;2022-11-06T00:39:26;3.80;99.90
26063;DHT22;13837;48.562;12.108;2022-11-06T00:41:52;3.80;99.90
26063;DHT22;13837;48.562;12.108;2022-11-06T00:44:17;3.80;99.90
26063;DHT22;13837;48.562;12.108;2022-11-06T00:46:43;3.80;99.90
26063;DHT22;13837;48.562;12.108;2022-11-06T00:49:09;3.80;99.90
26063;DHT22;13837;48.562;12.108;2022-11-06T00:51:36;3.80;99.90
26063;DHT22;13837;48.562;12.108;2022-11-06T00:54:05;3.90;99.90
26063;DHT22;13837;48.562;12.108;2022-11-06T00:56:32;4.10;99.90
26063;DHT22;13837;48.562;12.108;2022-11-06T00:59:04;4.20;99.90
26063;DHT22;13837;48.562;12.108;2022-11-06T01:01:36;4.10;99.90
26063;DHT22;13837;48.562;12.108;2022-11-06T01:04:14;4.10;99.90
26063;DHT22;13837;48.562;12.108;2022-11-06T01:06:43;4.10;99.90
26063;DHT22;13837;48.562;12.108;2022-11-06T01:09:15;4.10;99.90
26063;DHT22;13837;48.562;12.108;2022-11-06T01:11:49;4.20;99.90
26063;DHT22;13837;48.562;12.108;2022-11-06T01:14:17;4.20;99.90
26063;DHT22;13837;48.562;12.108;2022-11-06T01:16:43;4.20;99.90
26063;DHT22;13837;48.562;12.108;2022-11-06T01:19:15;4.30;99.90
26063;DHT22;13837;48.562;12.108;2022-11-06T01:21:44;4.20;99.90
26063;DHT22;13837;48.562;12.108;2022-11-06T01:24:12;4.20;99.90
26063;DHT22;13837;48.562;12.108;2022-11-06T01:26:38;4.20;99.90
26063;DHT22;13837;48.562;12.108;2022-11-06T01:29:07;4.20;99.90
26063;DHT22;13837;48.562;12.108;2022-11-06T01:31:34;4.20;99.90
26063;DHT22;13837;48.562;12.108;2022-11-06T01:34:00;4.20;99.90
26063;DHT22;13837;48.562;12.108;2022-11-06T01:36:27;4.20;99.90
26063;DHT22;13837;48.562;12.108;2022-11-06T01:38:55;4.20;99.90
26063;DHT22;13837;48.562;12.108;2022-11-06T01:41:27;4.20;99.90
26063;DHT22;13837;48.562;12.108;2022-11-06T01:46:32;4.20;99.90
26063;DHT22;13837;48.562;12.108;2022-11-06T01:49:00;4.20;99.90
26063;DHT22;13837;48.562;12.108;2022-11-06T01:51:28;4.30;99.90
26063;DHT22;13837;48.562;12.108;2022-11-06T01:53:55;4.30;99.90
26063;DHT22;13837;48.562;12.108;2022-11-06T01:56:22;4.30;99.90
26063;DHT22;13837;48.562;12.108;2022-11-06T01:58:50;4.40;99.90
26063;DHT22;13837;48.562;12.108;2022-11-06T02:01:16;4.30;99.90
26063;DHT22;13837;48.562;12.108;2022-11-06T02:03:58;4.20;99.90
26063;DHT22;13837;48.562;12.108;2022-11-06T02:06:25;4.00;99.90
26063;DHT22;13837;48.562;12.108;2022-11-06T02:08:51;4.00;99.90
26063;DHT22;13837;48.562;12.108;2022-11-06T02:11:17;4.00;99.90
26063;DHT22;13837;48.562;12.108;2022-11-06T02:16:55;4.10;99.90
26063;DHT22;13837;48.562;12.108;2022-11-06T02:19:52;4.20;99.90
26063;DHT22;13837;48.562;12.108;2022-11-06T02:22:36;4.20;99.90
26063;DHT22;13837;48.562;12.108;2022-11-06T02:25:19;4.20;99.90
26063;DHT22;13837;48.562;12.108;2022-11-06T02:27:56;4.20;99.90
26063;DHT22;13837;48.562;12.108;2022-11-06T02:30:29;4.20;99.90
26063;DHT22;13837;48.562;12.108;2022-11-06T02:35:59;4.40;99.90
26063;DHT22;13837;48.562;12.108;2022-11-06T02:38:39;4.30;99.90
26063;DHT22;13837;48.562;12.108;2022-11-06T02:41:08;4.20;99.90
26063;DHT22;13837;48.562;12.108;2022-11-06T02:43:42;4.30;99.90
26063;DHT22;13837;48.562;12.108;2022-11-06T02:48:53;4.30;99.90
26063;DHT22;13837;48.562;12.108;2022-11-06T02:51:23;4.30;99.90
26063;DHT22;13837;48.562;12.108;2022-11-06T02:53:52;4.30;99.90
26063;DHT22;13837;48.562;12.108;2022-11-06T02:56:22;4.30;99.90
26063;DHT22;13837;48.562;12.108;2022-11-06T02:58:55;4.30;99.90
26063;DHT22;13837;48.562;12.108;2022-11-06T03:01:33;4.30;99.90
26063;DHT22;13837;48.562;12.108;2022-11-06T03:04:04;4.30;99.90
26063;DHT22;13837;48.562;12.108;2022-11-06T03:06:42;4.30;99.90
26063;DHT22;13837;48.562;12.108;2022-11-06T03:09:22;4.30;99.90
26063;DHT22;13837;48.562;12.108;2022-11-06T03:14:37;4.40;99.90
26063;DHT22;13837;48.562;12.108;2022-11-06T03:23:07;4.40;99.90
26063;DHT22;13837;48.562;12.108;2022-11-06T03:25:34;4.50;99.90
26063;DHT22;13837;48.562;12.108;2022-11-06T03:28:15;4.40;99.90
26063;DHT22;13837;48.562;12.108;2022-11-06T03:30:53;4.40;99.90
26063;DHT22;13837;48.562;12.108;2022-11-06T03:33:51;4.40;99.90
26063;DHT22;13837;48.562;12.108;2022-11-06T03:36:23;4.50;99.90
26063;DHT22;13837;48.562;12.108;2022-11-06T03:38:57;4.40;99.90
26063;DHT22;13837;48.562;12.108;2022-11-06T03:41:28;4.50;99.90
26063;DHT22;13837;48.562;12.108;2022-11-06T03:43:58;4.50;99.90
26063;DHT22;13837;48.562;12.108;2022-11-06T03:46:27;4.50;99.90
26063;DHT22;13837;48.562;12.108;2022-11-06T03:49:03;4.60;99.90
26063;DHT22;13837;48.562;12.108;2022-11-06T03:51:52;4.40;99.90
26063;DHT22;13837;48.562;12.108;2022-11-06T03:57:38;4.60;99.90
26063;DHT22;13837;48.562;12.108;2022-11-06T04:00:07;4.60;99.90
26063;DHT22;13837;48.562;12.108;2022-11-06T04:02:40;4.60;99.90
26063;DHT22;13837;48.562;12.108;2022-11-06T04:05:23;4.50;99.90
26063;DHT22;13837;48.562;12.108;2022-11-06T04:07:54;4.50;99.90
26063;DHT22;13837;48.562;12.108;2022-11-06T04:10:42;4.50;99.90
26063;DHT22;13837;48.562;12.108;2022-11-06T04:13:29;4.70;99.90
26063;DHT22;13837;48.562;12.108;2022-11-06T04:16:14;4.70;99.90
26063;DHT22;13837;48.562;12.108;2022-11-06T04:18:44;4.70;99.90
26063;DHT22;13837;48.562;12.108;2022-11-06T04:21:39;4.70;99.90
26063;DHT22;13837;48.562;12.108;2022-11-06T04:30:12;4.70;99.90
26063;DHT22;13837;48.562;12.108;2022-11-06T04:32:48;4.70;99.90
26063;DHT22;13837;48.562;12.108;2022-11-06T04:35:30;4.80;99.90
26063;DHT22;13837;48.562;12.108;2022-11-06T04:38:09;4.70;99.90
26063;DHT22;13837;48.562;12.108;2022-11-06T04:45:55;4.70;99.90
26063;DHT22;13837;48.562;12.108;2022-11-06T04:48:26;4.60;99.90
26063;DHT22;13837;48.562;12.108;2022-11-06T04:53:54;4.60;99.90
26063;DHT22;13837;48.562;12.108;2022-11-06T04:56:30;4.60;99.90
26063;DHT22;13837;48.562;12.108;2022-11-06T04:58:57;4.60;99.90
26063;DHT22;13837;48.562;12.108;2022-11-06T05:01:32;4.70;99.90
26063;DHT22;13837;48.562;12.108;2022-11-06T05:03:59;4.70;99.90
26063;DHT22;13837;48.562;12.108;2022-11-06T05:06:27;4.70;99.90
26063;DHT22;13837;48.562;12.108;2022-11-06T05:08:56;4.80;99.90
26063;DHT22;13837;48.562;12.108;2022-11-06T05:11:25;4.80;99.90
26063;DHT22;13837;48.562;12.108;2022-11-06T05:13:51;4.80;99.90
26063;DHT22;13837;48.562;12.108;2022-11-06T05:16:18;4.90;99.90
26063;DHT22;13837;48.562;12.108;2022-11-06T05:18:44;4.90;99.90
26063;DHT22;13837;48.562;12.108;2022-11-06T05:21:10;4.90;99.90
26063;DHT22;13837;48.562;12.108;2022-11-06T05:23:54;4.80;99.90
26063;DHT22;13837;48.562;12.108;2022-11-06T05:26:22;4.80;99.90
26063;DHT22;13837;48.562;12.108;2022-11-06T05:28:48;4.90;99.90
26063;DHT22;13837;48.562;12.108;2022-11-06T05:31:14;4.90;99.90
26063;DHT22;13837;48.562;12.108;2022-11-06T05:33:40;4.90;99.90
26063;DHT22;13837;48.562;12.108;2022-11-06T05:36:07;4.90;99.90
26063;DHT22;13837;48.562;12.108;2022-11-06T05:38:33;4.90;99.90
26063;DHT22;13837;48.562;12.108;2022-11-06T05:40:59;4.80;99.90
26063;DHT22;13837;48.562;12.108;2022-11-06T05:43:25;4.80;99.90
26063;DHT22;13837;48.562;12.108;2022-11-06T05:45:53;4.70;99.90
26063;DHT22;13837;48.562;12.108;2022-11-06T05:48:22;4.80;99.90
26063;DHT22;13837;48.562;12.108;2022-11-06T05:50:48;4.80;99.90
26063;DHT22;13837;48.562;12.108;2022-11-06T05:53:15;4.90;99.90
26063;DHT22;13837;48.562;12.108;2022-11-06T05:55:47;4.80;99.90
26063;DHT22;13837;48.562;12.108;2022-11-06T05:58:13;4.90;99.90
26063;DHT22;13837;48.562;12.108;2022-11-06T06:00:39;4.90;99.90
26063;DHT22;13837;48.562;12.108;2022-11-06T06:03:05;4.90;99.90
26063;DHT22;13837;48.562;12.108;2022-11-06T06:05:34;4.90;99.90
26063;DHT22;13837;48.562;12.108;2022-11-06T06:08:00;4.90;99.90
26063;DHT22;13837;48.562;12.108;2022-11-06T06:10:28;4.90;99.90
26063;DHT22;13837;48.562;12.108;2022-11-06T06:12:54;4.90;99.90
26063;DHT22;13837;48.562;12.108;2022-11-06T06:15:25;4.90;99.90
26063;DHT22;13837;48.562;12.108;2022-11-06T06:17:51;4.90;99.90
26063;DHT22;13837;48.562;12.108;2022-11-06T06:20:20;4.90;99.90
26063;DHT22;13837;48.562;12.108;2022-11-06T06:22:53;4.90;99.90
26063;DHT22;13837;48.562;12.108;2022-11-06T06:25:19;4.90;99.90
26063;DHT22;13837;48.562;12.108;2022-11-06T06:27:45;4.90;99.90
26063;DHT22;13837;48.562;12.108;2022-11-06T06:30:14;5.00;99.90
26063;DHT22;13837;48.562;12.108;2022-11-06T06:32:43;4.90;99.90
26063;DHT22;13837;48.562;12.108;2022-11-06T06:35:09;4.90;99.90
26063;DHT22;13837;48.562;12.108;2022-11-06T06:37:36;5.00;99.90
26063;DHT22;13837;48.562;12.108;2022-11-06T06:40:03;4.90;99.90
26063;DHT22;13837;48.562;12.108;2022-11-06T06:42:33;4.90;99.90
26063;DHT22;13837;48.562;12.108;2022-11-06T06:44:59;5.00;99.90
26063;DHT22;13837;48.562;12.108;2022-11-06T06:47:25;5.00;99.90
26063;DHT22;13837;48.562;12.108;2022-11-06T06:49:54;5.00;99.90
26063;DHT22;13837;48.562;12.108;2022-11-06T06:52:22;5.10;99.90
26063;DHT22;13837;48.562;12.108;2022-11-06T06:54:50;5.10;99.90
26063;DHT22;13837;48.562;12.108;2022-11-06T06:57:16;5.10;99.90
26063;DHT22;13837;48.562;12.108;2022-11-06T06:59:43;5.00;99.90
26063;DHT22;13837;48.562;12.108;2022-11-06T07:02:09;5.10;99.90
26063;DHT22;13837;48.562;12.108;2022-11-06T07:04:35;5.10;99.90
26063;DHT22;13837;48.562;12.108;2022-11-06T07:07:01;5.10;99.90
26063;DHT22;13837;48.562;12.108;2022-11-06T07:09:33;5.10;99.90
26063;DHT22;13837;48.562;12.108;2022-11-06T07:12:02;5.10;99.90
26063;DHT22;13837;48.562;12.108;2022-11-06T07:14:31;5.10;99.90
26063;DHT22;13837;48.562;12.108;2022-11-06T07:16:58;5.20;99.90
26063;DHT22;13837;48.562;12.108;2022-11-06T07:19:30;5.10;99.90
26063;DHT22;13837;48.562;12.108;2022-11-06T07:21:56;5.10;99.90
26063;DHT22;13837;48.562;12.108;2022-11-06T07:24:22;5.20;99.90
26063;DHT22;13837;48.562;12.108;2022-11-06T07:26:49;5.30;99.90
26063;DHT22;13837;48.562;12.108;2022-11-06T07:29:15;5.30;99.90
26063;DHT22;13837;48.562;12.108;2022-11-06T07:31:43;5.40;99.90
26063;DHT22;13837;48.562;12.108;2022-11-06T07:34:15;5.50;99.90
26063;DHT22;13837;48.562;12.108;2022-11-06T07:36:46;5.60;99.90
26063;DHT22;13837;48.562;12.108;2022-11-06T07:39:12;5.60;99.90
26063;DHT22;13837;48.562;12.108;2022-11-06T07:41:39;5.70;99.90
26063;DHT22;13837;48.562;12.108;2022-11-06T07:44:05;5.80;99.90
26063;DHT22;13837;48.562;12.108;2022-11-06T07:46:34;5.90;99.90
26063;DHT22;13837;48.562;12.108;2022-11-06T07:49:00;5.80;99.90
26063;DHT22;13837;48.562;12.108;2022-11-06T07:51:32;5.90;99.90
26063;DHT22;13837;48.562;12.108;2022-11-06T07:54:05;6.00;99.90
26063;DHT22;13837;48.562;12.108;2022-11-06T07:56:31;6.10;99.90
26063;DHT22;13837;48.562;12.108;2022-11-06T07:59:00;6.10;99.90
26063;DHT22;13837;48.562;12.108;2022-11-06T08:01:26;6.20;99.90
26063;DHT22;13837;48.562;12.108;2022-11-06T08:03:58;6.20;99.90
26063;DHT22;13837;48.562;12.108;2022-11-06T08:06:25;6.30;99.90
26063;DHT22;13837;48.562;12.108;2022-11-06T08:08:54;6.30;99.90
26063;DHT22;13837;48.562;12.108;2022-11-06T08:11:23;6.30;99.90
26063;DHT22;13837;48.562;12.108;2022-11-06T08:13:49;6.10;99.90
26063;DHT22;13837;48.562;12.108;2022-11-06T08:16:15;6.00;99.90
26063;DHT22;13837;48.562;12.108;2022-11-06T08:18:45;6.10;99.90
26063;DHT22;13837;48.562;12.108;2022-11-06T08:21:11;6.10;99.90
26063;DHT22;13837;48.562;12.108;2022-11-06T08:23:37;6.20;99.90
26063;DHT22;13837;48.562;12.108;2022-11-06T08:26:06;6.20;99.90
26063;DHT22;13837;48.562;12.108;2022-11-06T08:28:37;6.10;99.90
26063;DHT22;13837;48.562;12.108;2022-11-06T08:31:06;6.10;99.90
26063;DHT22;13837;48.562;12.108;2022-11-06T08:33:36;6.20;99.90
26063;DHT22;13837;48.562;12.108;2022-11-06T08:36:06;6.40;99.90
26063;DHT22;13837;48.562;12.108;2022-11-06T08:38:35;6.50;99.90
26063;DHT22;13837;48.562;12.108;2022-11-06T08:41:10;6.50;99.90
26063;DHT22;13837;48.562;12.108;2022-11-06T08:43:39;6.40;99.90
26063;DHT22;13837;48.562;12.108;2022-11-06T08:46:09;6.40;99.90
26063;DHT22;13837;48.562;12.108;2022-11-06T08:48:42;6.30;99.90
26063;DHT22;13837;48.562;12.108;2022-11-06T08:51:08;6.20;99.90
26063;DHT22;13837;48.562;12.108;2022-11-06T08:53:38;6.30;99.90
26063;DHT22;13837;48.562;12.108;2022-11-06T08:56:07;6.30;99.90
26063;DHT22;13837;48.562;12.108;2022-11-06T08:58:36;6.30;99.90
26063;DHT22;13837;48.562;12.108;2022-11-06T09:01:03;6.50;99.90
26063;DHT22;13837;48.562;12.108;2022-11-06T09:03:34;6.50;99.90
26063;DHT22;13837;48.562;12.108;2022-11-06T09:06:04;6.40;99.90
26063;DHT22;13837;48.562;12.108;2022-11-06T09:08:31;6.50;99.90
26063;DHT22;13837;48.562;12.108;2022-11-06T09:17:13;6.50;99.90
26063;DHT22;13837;48.562;12.108;2022-11-06T09:19:42;6.50;99.90
26063;DHT22;13837;48.562;12.108;2022-11-06T09:22:08;6.50;99.90
26063;DHT22;13837;48.562;12.108;2022-11-06T09:24:36;6.50;99.90
26063;DHT22;13837;48.562;12.108;2022-11-06T09:27:09;6.60;99.90
26063;DHT22;13837;48.562;12.108;2022-11-06T09:29:40;6.60;99.90
26063;DHT22;13837;48.562;12.108;2022-11-06T09:32:09;6.70;99.90
26063;DHT22;13837;48.562;12.108;2022-11-06T09:34:37;6.70;99.90
26063;DHT22;13837;48.562;12.108;2022-11-06T09:37:05;6.70;99.90
26063;DHT22;13837;48.562;12.108;2022-11-06T09:39:34;6.90;99.90
26063;DHT22;13837;48.562;12.108;2022-11-06T09:45:16;6.90;99.90
26063;DHT22;13837;48.562;12.108;2022-11-06T09:47:58;7.10;99.90
26063;DHT22;13837;48.562;12.108;2022-11-06T09:50:31;7.30;99.90
26063;DHT22;13837;48.562;12.108;2022-11-06T09:53:02;8.30;99.90
26063;DHT22;13837;48.562;12.108;2022-11-06T09:55:41;9.10;99.90
26063;DHT22;13837;48.562;12.108;2022-11-06T09:58:12;9.50;99.90
26063;DHT22;13837;48.562;12.108;2022-11-06T10:00:40;9.80;99.90
26063;DHT22;13837;48.562;12.108;2022-11-06T10:03:15;10.00;99.90
26063;DHT22;13837;48.562;12.108;2022-11-06T10:05:43;10.20;99.90
26063;DHT22;13837;48.562;12.108;2022-11-06T10:08:16;10.30;99.90
26063;DHT22;13837;48.562;12.108;2022-11-06T10:14:42;9.90;99.90
26063;DHT22;13837;48.562;12.108;2022-11-06T10:17:34;9.20;99.90
26063;DHT22;13837;48.562;12.108;2022-11-06T10:20:06;8.70;99.90
26063;DHT22;13837;48.562;12.108;2022-11-06T10:22:42;8.50;99.90
26063;DHT22;13837;48.562;12.108;2022-11-06T10:25:17;8.50;99.90
26063;DHT22;13837;48.562;12.108;2022-11-06T10:28:08;8.50;99.90
26063;DHT22;13837;48.562;12.108;2022-11-06T10:40:44;8.10;99.90
26063;DHT22;13837;48.562;12.108;2022-11-06T10:43:42;8.20;99.90
26063;DHT22;13837;48.562;12.108;2022-11-06T10:46:28;8.30;99.90
26063;DHT22;13837;48.562;12.108;2022-11-06T10:57:49;8.60;99.90
26063;DHT22;13837;48.562;12.108;2022-11-06T11:00:21;8.90;99.90
26063;DHT22;13837;48.562;12.108;2022-11-06T11:02:56;9.10;99.90
26063;DHT22;13837;48.562;12.108;2022-11-06T11:05:42;9.20;99.90
26063;DHT22;13837;48.562;12.108;2022-11-06T11:08:32;9.40;99.90
26063;DHT22;13837;48.562;12.108;2022-11-06T11:15:16;9.70;99.90
26063;DHT22;13837;48.562;12.108;2022-11-06T11:20:46;9.90;99.90
26063;DHT22;13837;48.562;12.108;2022-11-06T11:38:10;10.90;99.90
26063;DHT22;13837;48.562;12.108;2022-11-06T11:44:32;11.00;99.90
26063;DHT22;13837;48.562;12.108;2022-11-06T11:47:06;10.90;99.90
26063;DHT22;13837;48.562;12.108;2022-11-06T11:53:32;11.70;99.90
26063;DHT22;13837;48.562;12.108;2022-11-06T11:55:58;11.60;99.90
26063;DHT22;13837;48.562;12.108;2022-11-06T11:58:58;11.50;99.90
26063;DHT22;13837;48.562;12.108;2022-11-06T12:06:08;11.40;99.90
26063;DHT22;13837;48.562;12.108;2022-11-06T12:08:54;11.30;99.90
26063;DHT22;13837;48.562;12.108;2022-11-06T12:11:46;11.40;99.90
26063;DHT22;13837;48.562;12.108;2022-11-06T12:17:03;12.00;99.90
26063;DHT22;13837;48.562;12.108;2022-11-06T12:19:39;12.70;99.90
26063;DHT22;13837;48.562;12.108;2022-11-06T12:22:48;13.50;99.90
26063;DHT22;13837;48.562;12.108;2022-11-06T12:30:18;12.50;99.90
26063;DHT22;13837;48.562;12.108;2022-11-06T12:35:23;11.80;99.90
26063;DHT22;13837;48.562;12.108;2022-11-06T14:09:21;10.90;99.90
26063;DHT22;13837;48.562;12.108;2022-11-06T14:31:08;10.90;99.90
26063;DHT22;13837;48.562;12.108;2022-11-06T14:41:51;10.80;99.90
26063;DHT22;13837;48.562;12.108;2022-11-06T14:45:35;10.80;99.90
26063;DHT22;13837;48.562;12.108;2022-11-06T14:56:32;10.40;99.90
26063;DHT22;13837;48.562;12.108;2022-11-06T14:59:15;10.30;99.90
26063;DHT22;13837;48.562;12.108;2022-11-06T15:02:14;10.30;99.90
26063;DHT22;13837;48.562;12.108;2022-11-06T15:05:17;10.40;99.90
26063;DHT22;13837;48.562;12.108;2022-11-06T15:22:15;9.30;99.90
26063;DHT22;13837;48.562;12.108;2022-11-06T15:31:11;9.00;99.90
26063;DHT22;13837;48.562;12.108;2022-11-06T15:42:21;8.40;99.90
26063;DHT22;13837;48.562;12.108;2022-11-06T15:47:58;8.10;99.90
26063;DHT22;13837;48.562;12.108;2022-11-06T15:50:29;7.90;99.90
26063;DHT22;13837;48.562;12.108;2022-11-06T16:00:46;8.20;99.90
26063;DHT22;13837;48.562;12.108;2022-11-06T16:03:24;8.10;99.90
26063;DHT22;13837;48.562;12.108;2022-11-06T16:05:51;7.90;99.90
26063;DHT22;13837;48.562;12.108;2022-11-06T16:08:19;7.70;99.90
26063;DHT22;13837;48.562;12.108;2022-11-06T16:10:45;7.50;99.90
26063;DHT22;13837;48.562;12.108;2022-11-06T16:13:15;7.40;99.90
26063;DHT22;13837;48.562;12.108;2022-11-06T16:18:30;7.10;99.90
26063;DHT22;13837;48.562;12.108;2022-11-06T16:20:58;7.00;99.90
26063;DHT22;13837;48.562;12.108;2022-11-06T16:23:30;6.90;99.90
26063;DHT22;13837;48.562;12.108;2022-11-06T16:26:02;6.80;99.90
26063;DHT22;13837;48.562;12.108;2022-11-06T16:28:30;6.70;99.90
26063;DHT22;13837;48.562;12.108;2022-11-06T16:31:16;6.70;99.90
26063;DHT22;13837;48.562;12.108;2022-11-06T16:33:56;6.70;99.90
26063;DHT22;13837;48.562;12.108;2022-11-06T16:36:23;6.60;99.90
26063;DHT22;13837;48.562;12.108;2022-11-06T16:38:51;6.60;99.90
26063;DHT22;13837;48.562;12.108;2022-11-06T16:41:57;6.50;99.90
26063;DHT22;13837;48.562;12.108;2022-11-06T16:49:32;6.30;99.90
26063;DHT22;13837;48.562;12.108;2022-11-06T16:51:58;6.30;99.90
26063;DHT22;13837;48.562;12.108;2022-11-06T16:54:24;6.20;99.90
26063;DHT22;13837;48.562;12.108;2022-11-06T16:57:07;6.20;99.90
26063;DHT22;13837;48.562;12.108;2022-11-06T16:59:34;6.20;99.90
26063;DHT22;13837;48.562;12.108;2022-11-06T17:02:00;6.20;99.90
26063;DHT22;13837;48.562;12.108;2022-11-06T17:04:27;6.10;99.90
26063;DHT22;13837;48.562;12.108;2022-11-06T17:06:56;6.00;99.90
26063;DHT22;13837;48.562;12.108;2022-11-06T17:11:51;5.90;99.90
26063;DHT22;13837;48.562;12.108;2022-11-06T17:14:17;5.90;99.90
26063;DHT22;13837;48.562;12.108;2022-11-06T17:16:46;5.80;99.90
26063;DHT22;13837;48.562;12.108;2022-11-06T17:19:15;5.80;99.90
26063;DHT22;13837;48.562;12.108;2022-11-06T17:21:40;5.70;99.90
26063;DHT22;13837;48.562;12.108;2022-11-06T17:24:06;5.70;99.90
26063;DHT22;13837;48.562;12.108;2022-11-06T17:26:32;5.60;99.90
26063;DHT22;13837;48.562;12.108;2022-11-06T17:28:58;5.60;99.90
26063;DHT22;13837;48.562;12.108;2022-11-06T17:31:25;5.60;99.90
26063;DHT22;13837;48.562;12.108;2022-11-06T17:33:52;5.60;99.90
26063;DHT22;13837;48.562;12.108;2022-11-06T17:36:23;5.50;99.90
26063;DHT22;13837;48.562;12.108;2022-11-06T17:38:53;5.50;99.90
26063;DHT22;13837;48.562;12.108;2022-11-06T17:41:20;5.60;99.90
26063;DHT22;13837;48.562;12.108;2022-11-06T17:44:03;5.60;99.90
26063;DHT22;13837;48.562;12.108;2022-11-06T17:46:31;5.50;99.90
26063;DHT22;13837;48.562;12.108;2022-11-06T17:48:58;5.50;99.90
26063;DHT22;13837;48.562;12.108;2022-11-06T17:51:24;5.50;99.90
26063;DHT22;13837;48.562;12.108;2022-11-06T17:54:09;5.40;99.90
26063;DHT22;13837;48.562;12.108;2022-11-06T17:56:36;5.40;99.90
26063;DHT22;13837;48.562;12.108;2022-11-06T17:59:02;5.40;99.90
26063;DHT22;13837;48.562;12.108;2022-11-06T18:01:28;5.30;99.90
26063;DHT22;13837;48.562;12.108;2022-11-06T18:03:54;5.30;99.90
26063;DHT22;13837;48.562;12.108;2022-11-06T18:06:20;5.30;99.90
26063;DHT22;13837;48.562;12.108;2022-11-06T18:08:46;5.30;99.90
26063;DHT22;13837;48.562;12.108;2022-11-06T18:11:11;5.30;99.90
26063;DHT22;13837;48.562;12.108;2022-11-06T18:13:38;5.30;99.90
26063;DHT22;13837;48.562;12.108;2022-11-06T18:16:12;5.30;99.90
26063;DHT22;13837;48.562;12.108;2022-11-06T18:18:38;5.30;99.90
26063;DHT22;13837;48.562;12.108;2022-11-06T18:21:05;5.30;99.90
26063;DHT22;13837;48.562;12.108;2022-11-06T18:23:31;5.30;99.90
26063;DHT22;13837;48.562;12.108;2022-11-06T18:25:57;5.30;99.90
26063;DHT22;13837;48.562;12.108;2022-11-06T18:28:24;5.30;99.90
26063;DHT22;13837;48.562;12.108;2022-11-06T18:30:50;5.30;99.90
26063;DHT22;13837;48.562;12.108;2022-11-06T18:33:16;5.30;99.90
26063;DHT22;13837;48.562;12.108;2022-11-06T18:35:42;5.30;99.90
26063;DHT22;13837;48.562;12.108;2022-11-06T18:38:08;5.30;99.90
26063;DHT22;13837;48.562;12.108;2022-11-06T18:40:37;5.30;99.90
26063;DHT22;13837;48.562;12.108;2022-11-06T18:43:03;5.30;99.90
26063;DHT22;13837;48.562;12.108;2022-11-06T18:45:29;5.30;99.90
26063;DHT22;13837;48.562;12.108;2022-11-06T18:47:55;5.30;99.90
26063;DHT22;13837;48.562;12.108;2022-11-06T18:50:22;5.30;99.90
26063;DHT22;13837;48.562;12.108;2022-11-06T18:52:48;5.30;99.90
26063;DHT22;13837;48.562;12.108;2022-11-06T18:55:14;5.40;99.90
26063;DHT22;13837;48.562;12.108;2022-11-06T18:57:40;5.40;99.90
26063;DHT22;13837;48.562;12.108;2022-11-06T19:00:06;5.40;99.90
26063;DHT22;13837;48.562;12.108;2022-11-06T19:02:32;5.40;99.90
26063;DHT22;13837;48.562;12.108;2022-11-06T19:04:58;5.40;99.90
26063;DHT22;13837;48.562;12.108;2022-11-06T19:07:25;5.40;99.90
26063;DHT22;13837;48.562;12.108;2022-11-06T19:09:51;5.50;99.90
26063;DHT22;13837;48.562;12.108;2022-11-06T19:12:17;5.40;99.90
26063;DHT22;13837;48.562;12.108;2022-11-06T19:14:43;5.40;99.90
26063;DHT22;13837;48.562;12.108;2022-11-06T19:17:08;5.30;99.90
26063;DHT22;13837;48.562;12.108;2022-11-06T19:19:34;5.30;99.90
26063;DHT22;13837;48.562;12.108;2022-11-06T19:22:00;5.30;99.90
26063;DHT22;13837;48.562;12.108;2022-11-06T19:24:25;5.30;99.90
26063;DHT22;13837;48.562;12.108;2022-11-06T19:26:51;5.30;99.90
26063;DHT22;13837;48.562;12.108;2022-11-06T19:29:17;5.30;99.90
26063;DHT22;13837;48.562;12.108;2022-11-06T19:31:42;5.30;99.90
26063;DHT22;13837;48.562;12.108;2022-11-06T19:34:10;5.30;99.90
26063;DHT22;13837;48.562;12.108;2022-11-06T19:36:36;5.30;99.90
26063;DHT22;13837;48.562;12.108;2022-11-06T19:39:03;5.30;99.90
26063;DHT22;13837;48.562;12.108;2022-11-06T19:41:29;5.30;99.90
26063;DHT22;13837;48.562;12.108;2022-11-06T19:43:55;5.30;99.90
26063;DHT22;13837;48.562;12.108;2022-11-06T19:46:21;5.30;99.90
26063;DHT22;13837;48.562;12.108;2022-11-06T19:48:46;5.40;99.90
26063;DHT22;13837;48.562;12.108;2022-11-06T19:51:14;5.40;99.90
26063;DHT22;13837;48.562;12.108;2022-11-06T19:53:41;5.40;99.90
26063;DHT22;13837;48.562;12.108;2022-11-06T19:56:08;5.40;99.90
26063;DHT22;13837;48.562;12.108;2022-11-06T19:58:34;5.40;99.90
26063;DHT22;13837;48.562;12.108;2022-11-06T20:01:08;5.50;99.90
26063;DHT22;13837;48.562;12.108;2022-11-06T20:03:35;5.50;99.90
26063;DHT22;13837;48.562;12.108;2022-11-06T20:06:01;5.50;99.90
26063;DHT22;13837;48.562;12.108;2022-11-06T20:08:27;5.50;99.90
26063;DHT22;13837;48.562;12.108;2022-11-06T20:10:53;5.50;99.90
26063;DHT22;13837;48.562;12.108;2022-11-06T20:13:18;5.50;99.90
26063;DHT22;13837;48.562;12.108;2022-11-06T20:15:44;5.50;99.90
26063;DHT22;13837;48.562;12.108;2022-11-06T20:18:10;5.70;99.90
26063;DHT22;13837;48.562;12.108;2022-11-06T20:20:35;5.70;99.90
26063;DHT22;13837;48.562;12.108;2022-11-06T20:23:01;5.60;99.90
26063;DHT22;13837;48.562;12.108;2022-11-06T20:25:27;5.60;99.90
26063;DHT22;13837;48.562;12.108;2022-11-06T20:27:53;5.50;99.90
26063;DHT22;13837;48.562;12.108;2022-11-06T20:30:18;5.60;99.90
26063;DHT22;13837;48.562;12.108;2022-11-06T20:32:44;5.50;99.90
26063;DHT22;13837;48.562;12.108;2022-11-06T20:35:10;5.60;99.90
26063;DHT22;13837;48.562;12.108;2022-11-06T20:37:36;5.60;99.90
26063;DHT22;13837;48.562;12.108;2022-11-06T20:40:03;5.60;99.90
26063;DHT22;13837;48.562;12.108;2022-11-06T20:42:29;5.60;99.90